createdAt,value
2022-09-11T00:03:50.327Z,32.40
2022-09-11T00:08:54.455Z,35.10
2022-09-11T00:13:56.949Z,36.80
2022-09-11T00:19:00.874Z,36.20
2022-09-11T00:24:04.193Z,35.50
2022-09-11T00:29:06.058Z,37.50
2022-09-11T00:34:07.841Z,31.60
2022-09-11T00:39:11.964Z,36.10
2022-09-11T00:44:15.579Z,28.70
2022-09-11T00:49:26.569Z,25.70
2022-09-11T00:54:39.402Z,28.40
2022-09-11T00:59:43.746Z,22.40
2022-09-11T01:04:45.717Z,23.20
2022-09-11T01:09:48.413Z,17.60
2022-09-11T01:15:07.601Z,24.20
2022-09-11T01:21:04.256Z,24.50
2022-09-11T01:26:34.293Z,23.30
2022-09-11T01:31:58.902Z,23.50
2022-09-11T01:37:05.693Z,23.40
2022-09-11T01:42:14.449Z,30.20
2022-09-11T01:47:19.073Z,28.70
2022-09-11T01:52:27.607Z,27.90
2022-09-11T01:57:36.138Z,27.80
2022-09-11T02:02:44.363Z,26.80
2022-09-11T02:07:55.870Z,28.30
2022-09-11T02:13:11.668Z,30.50
2022-09-11T02:18:24.400Z,28.60
2022-09-11T02:23:26.277Z,23.50
2022-09-11T02:28:28.782Z,25.00
2022-09-11T02:33:35.872Z,25.80
2022-09-11T02:38:56.996Z,29.00
2022-09-11T02:44:14.539Z,23.60
2022-09-11T02:49:41.504Z,23.70
2022-09-11T02:54:47.173Z,22.40
2022-09-11T02:59:56.624Z,18.70
2022-09-11T03:04:58.607Z,25.90
2022-09-11T03:10:00.789Z,21.60
2022-09-11T03:15:05.448Z,23.30
2022-09-11T03:20:08.331Z,22.90
2022-09-11T03:25:11.434Z,19.40
2022-09-11T03:30:13.622Z,17.60
2022-09-11T03:35:16.110Z,23.60
2022-09-11T03:40:19.802Z,20.50
2022-09-11T03:45:21.671Z,22.50
2022-09-11T03:50:23.584Z,15.70
2022-09-11T03:55:25.564Z,19.60
2022-09-11T04:00:27.335Z,18.90
2022-09-11T04:05:29.315Z,14.50
2022-09-11T04:10:34.878Z,18.40
2022-09-11T04:15:36.651Z,18.60
2022-09-11T04:20:39.349Z,22.10
2022-09-11T04:25:41.226Z,16.80
2022-09-11T04:30:43.103Z,16.10
2022-09-11T04:35:44.853Z,14.40
2022-09-11T04:40:47.327Z,14.90
2022-09-11T04:45:49.395Z,19.90
2022-09-11T04:51:02.900Z,15.30
2022-09-11T04:56:07.541Z,16.30
2022-09-11T05:01:12.823Z,19.10
2022-09-11T05:06:17.233Z,16.60
2022-09-11T05:11:22.384Z,16.40
2022-09-11T05:16:26.608Z,17.80
2022-09-11T05:21:29.825Z,20.10
2022-09-11T05:26:34.570Z,22.70
2022-09-11T05:31:36.889Z,24.50
2022-09-11T05:36:38.629Z,25.20
2022-09-11T05:41:40.405Z,18.50
2022-09-11T05:46:42.284Z,18.00
2022-09-11T05:51:44.881Z,13.60
2022-09-11T05:56:46.751Z,16.20
2022-09-11T06:01:49.378Z,11.60
2022-09-11T06:06:51.427Z,11.30
2022-09-11T06:11:54.794Z,14.50
2022-09-11T06:16:56.844Z,13.50
2022-09-11T06:21:58.550Z,13.80
2022-09-11T06:27:00.474Z,16.00
2022-09-11T06:32:03.530Z,13.80
2022-09-11T06:42:07.945Z,7.60
2022-09-11T06:47:10.231Z,9.60
2022-09-11T06:52:12.108Z,10.60
2022-09-11T06:57:15.109Z,9.80
2022-09-11T07:02:16.884Z,9.20
2022-09-11T07:07:18.657Z,7.00
2022-09-11T07:12:23.504Z,8.60
2022-09-11T07:17:25.384Z,11.30
2022-09-11T07:22:29.099Z,8.70
2022-09-11T07:27:34.060Z,9.10
2022-09-11T07:32:37.156Z,4.20
2022-09-11T07:37:39.032Z,6.70
2022-09-11T07:42:40.704Z,8.30
2022-09-11T07:47:42.783Z,10.30
2022-09-11T07:52:44.973Z,7.40
2022-09-11T07:57:47.356Z,5.80
2022-09-11T08:02:49.277Z,6.00
2022-09-11T08:07:51.212Z,4.60
2022-09-11T08:12:58.055Z,6.20
2022-09-11T08:18:04.903Z,5.10
2022-09-11T08:23:06.676Z,5.50
2022-09-11T08:28:09.065Z,4.10
2022-09-11T08:33:12.577Z,5.20
2022-09-11T08:38:14.561Z,2.90
2022-09-11T08:43:35.583Z,8.70
2022-09-11T08:49:05.828Z,3.00
2022-09-11T08:54:21.625Z,4.10
2022-09-11T08:59:24.437Z,2.70
2022-09-11T09:05:00.302Z,3.70
2022-09-11T09:10:20.745Z,6.10
2022-09-11T09:15:54.063Z,5.20
2022-09-11T09:21:17.510Z,2.60
2022-09-11T09:26:29.339Z,2.80
2022-09-11T09:31:33.552Z,3.20
2022-09-11T09:36:46.893Z,2.00
2022-09-11T09:42:12.018Z,2.30
2022-09-11T09:47:15.325Z,5.30
2022-09-11T09:52:24.485Z,4.80
2022-09-11T09:57:31.157Z,2.00
2022-09-11T10:02:39.456Z,2.80
2022-09-11T10:07:51.412Z,2.50
2022-09-11T10:13:24.508Z,3.10
2022-09-11T10:18:33.087Z,4.20
2022-09-11T10:23:46.481Z,5.50
2022-09-11T10:28:49.399Z,4.20
2022-09-11T10:33:57.110Z,2.90
2022-09-11T10:39:02.157Z,3.20
2022-09-11T10:44:14.176Z,2.70
2022-09-11T10:49:24.191Z,2.40
2022-09-11T10:54:40.966Z,3.40
2022-09-11T10:59:48.482Z,5.10
2022-09-11T11:04:51.171Z,2.10
2022-09-11T11:10:23.050Z,3.30
2022-09-11T11:15:56.846Z,5.20
2022-09-11T11:21:19.034Z,4.70
2022-09-11T11:26:49.707Z,2.90
2022-09-11T11:32:05.792Z,3.60
2022-09-11T11:37:08.846Z,10.10
2022-09-11T11:42:30.556Z,3.70
2022-09-11T11:47:43.883Z,2.60
2022-09-11T11:53:08.283Z,3.30
2022-09-11T11:58:24.004Z,2.80
2022-09-11T12:03:44.914Z,2.20
2022-09-11T12:08:49.653Z,4.70
2022-09-11T12:13:55.403Z,2.10
2022-09-11T12:19:05.242Z,3.70
2022-09-11T12:24:20.692Z,4.30
2022-09-11T12:30:11.002Z,2.50
2022-09-11T12:35:49.025Z,4.90
2022-09-11T12:40:59.709Z,2.70
2022-09-11T12:46:29.228Z,6.50
2022-09-11T12:51:51.988Z,2.90
2022-09-11T12:57:18.953Z,5.00
2022-09-11T13:02:38.033Z,6.10
2022-09-11T13:07:48.556Z,3.00
2022-09-11T13:12:57.599Z,2.90
2022-09-11T13:18:01.613Z,3.00
2022-09-11T13:23:18.316Z,3.90
2022-09-11T13:28:25.433Z,2.20
2022-09-11T13:33:33.756Z,2.70
2022-09-11T13:38:37.560Z,3.10
2022-09-11T13:43:46.808Z,4.50
2022-09-11T13:48:57.662Z,5.30
2022-09-11T13:54:11.783Z,3.60
2022-09-11T13:59:49.309Z,5.80
2022-09-11T14:04:58.752Z,3.00
2022-09-11T14:10:10.503Z,6.30
2022-09-11T14:15:26.586Z,2.50
2022-09-11T14:20:31.084Z,2.60
2022-09-11T14:25:35.600Z,2.30
2022-09-11T14:30:39.151Z,3.40
2022-09-11T14:35:43.706Z,5.50
2022-09-11T14:40:56.613Z,3.20
2022-09-11T14:46:02.921Z,2.10
2022-09-11T14:51:13.339Z,4.30
2022-09-11T14:56:16.883Z,2.80
2022-09-11T15:01:21.290Z,5.70
2022-09-11T15:06:25.263Z,3.10
2022-09-11T15:11:33.483Z,2.70
2022-09-11T15:16:43.235Z,2.70
2022-09-11T15:21:57.093Z,4.10
2022-09-11T15:26:59.789Z,6.00
2022-09-11T15:37:09.681Z,3.60
2022-09-11T15:42:13.306Z,4.60
2022-09-11T15:47:22.381Z,3.90
2022-09-11T15:52:29.598Z,3.60
2022-09-11T15:57:35.674Z,3.50
2022-09-11T16:02:42.772Z,4.00
2022-09-11T16:07:49.075Z,2.80
2022-09-11T16:12:58.141Z,4.30
2022-09-11T16:18:07.728Z,3.10
2022-09-11T16:23:18.591Z,2.70
2022-09-11T16:28:31.018Z,4.50
2022-09-11T16:33:48.294Z,2.30
2022-09-11T16:38:52.686Z,4.10
2022-09-11T16:43:56.687Z,3.70
2022-09-11T16:49:01.997Z,5.10
2022-09-11T16:54:05.922Z,2.10
2022-09-11T16:59:09.822Z,2.50
2022-09-11T17:04:14.143Z,3.60
2022-09-11T17:09:22.700Z,5.80
2022-09-11T17:14:31.259Z,2.40
2022-09-11T17:19:34.124Z,3.30
2022-09-11T17:24:36.102Z,3.10
2022-09-11T17:29:44.366Z,3.50
2022-09-11T17:34:47.537Z,4.80
2022-09-11T17:39:53.196Z,2.80
2022-09-11T17:44:56.940Z,7.80
2022-09-11T17:50:01.667Z,5.10
2022-09-11T17:55:10.830Z,6.20
2022-09-11T18:00:19.792Z,3.00
2022-09-11T18:05:26.260Z,5.40
2022-09-11T18:10:34.624Z,3.30
2022-09-11T18:15:39.257Z,4.90
2022-09-11T18:20:44.265Z,4.50
2022-09-11T18:25:49.818Z,6.00
2022-09-11T18:30:57.090Z,6.60
2022-09-11T18:36:10.070Z,7.20
2022-09-11T18:41:16.652Z,7.40
2022-09-11T18:46:24.214Z,6.80
2022-09-11T18:51:29.165Z,3.60
2022-09-11T18:56:35.350Z,7.10
2022-09-11T19:01:44.535Z,5.40
2022-09-11T19:06:49.789Z,4.90
2022-09-11T19:11:53.734Z,5.60
2022-09-11T19:16:55.962Z,7.00
2022-09-11T19:22:02.613Z,5.20
2022-09-11T19:27:06.718Z,5.70
2022-09-11T19:32:09.006Z,6.00
2022-09-11T19:37:15.081Z,4.90
2022-09-11T19:42:18.084Z,4.20
2022-09-11T19:47:20.777Z,7.10
2022-09-11T19:52:23.069Z,5.60
2022-09-11T19:57:24.942Z,5.40
2022-09-11T20:02:27.535Z,5.00
2022-09-11T20:07:29.616Z,10.80
2022-09-11T20:12:36.818Z,7.90
2022-09-11T20:17:40.855Z,7.10
2022-09-11T20:22:43.615Z,4.20
2022-09-11T20:27:47.568Z,4.20
2022-09-11T20:32:49.555Z,8.10
2022-09-11T20:37:52.456Z,5.70
2022-09-11T20:42:54.735Z,5.40
2022-09-11T20:47:57.841Z,3.80
2022-09-11T20:53:00.516Z,6.30
2022-09-11T20:58:02.836Z,4.30
2022-09-11T21:03:04.695Z,5.70
2022-09-11T21:08:06.573Z,3.60
2022-09-11T21:13:11.115Z,7.10
2022-09-11T21:18:15.078Z,4.80
2022-09-11T21:23:16.833Z,5.40
2022-09-11T21:28:18.800Z,3.80
2022-09-11T21:33:20.893Z,6.70
2022-09-11T21:38:27.998Z,3.80
2022-09-11T21:43:30.565Z,4.70
2022-09-11T21:48:35.713Z,5.00
2022-09-11T21:53:39.138Z,6.90
2022-09-11T21:58:41.315Z,6.00
2022-09-11T22:03:44.167Z,4.60
2022-09-11T22:08:46.722Z,4.50
2022-09-11T22:13:49.095Z,5.40
2022-09-11T22:18:54.039Z,3.60
2022-09-11T22:23:56.855Z,7.30
2022-09-11T22:28:59.541Z,6.50
2022-09-11T22:34:01.725Z,6.80
2022-09-11T22:39:05.033Z,4.90
2022-09-11T22:44:07.641Z,6.00
2022-09-11T22:49:09.604Z,7.60
2022-09-11T22:54:13.324Z,5.90
2022-09-11T22:59:14.997Z,4.80
2022-09-11T23:04:17.079Z,4.90
2022-09-11T23:09:18.850Z,5.10
2022-09-11T23:14:20.626Z,6.00
2022-09-11T23:19:22.913Z,5.70
2022-09-11T23:24:25.403Z,9.10
2022-09-11T23:29:27.484Z,9.50
2022-09-11T23:34:29.362Z,7.50
2022-09-11T23:39:31.238Z,7.80
2022-09-11T23:44:32.909Z,6.60
2022-09-11T23:49:36.472Z,7.90
2022-09-11T23:54:38.712Z,9.70
2022-09-11T23:59:40.485Z,7.10
